createdAt,value
2022-12-13T00:00:31.931Z,-1.34
2022-12-13T00:05:57.168Z,-1.26
2022-12-13T00:11:05.252Z,-1.28
2022-12-13T00:16:12.928Z,-1.25
2022-12-13T00:21:21.723Z,-1.28
2022-12-13T00:26:28.731Z,-1.26
2022-12-13T00:36:55.659Z,-1.33
2022-12-13T00:41:59.173Z,-1.33
2022-12-13T00:47:02.644Z,-1.44
2022-12-13T00:52:05.897Z,-1.55
2022-12-13T00:57:09.209Z,-1.54
2022-12-13T01:02:13.354Z,-1.62
2022-12-13T01:07:17.073Z,-1.66
2022-12-13T01:12:20.693Z,-1.77
2022-12-13T01:17:24.289Z,-1.68
2022-12-13T01:22:27.651Z,-1.63
2022-12-13T01:27:31.039Z,-1.62
2022-12-13T01:32:34.340Z,-1.61
2022-12-13T01:37:37.825Z,-1.60
2022-12-13T01:42:41.128Z,-2.02
2022-12-13T01:47:49.085Z,-2.20
2022-12-13T01:52:55.735Z,-2.31
2022-12-13T01:58:05.430Z,-2.42
2022-12-13T02:03:09.858Z,-2.37
2022-12-13T02:08:25.934Z,-2.26
2022-12-13T02:13:29.353Z,-2.18
2022-12-13T02:18:57.988Z,-2.03
2022-12-13T02:24:12.660Z,-1.90
2022-12-13T02:29:39.040Z,-1.90
2022-12-13T02:34:54.631Z,-1.96
2022-12-13T02:40:06.540Z,-1.96
2022-12-13T02:45:24.725Z,-1.90
2022-12-13T02:50:31.019Z,-1.74
2022-12-13T02:55:36.197Z,-1.69
2022-12-13T03:01:28.808Z,-1.62
2022-12-13T03:06:58.423Z,-1.55
2022-12-13T03:12:38.782Z,-1.55
2022-12-13T03:17:50.888Z,-1.52
2022-12-13T03:22:55.636Z,-1.54
2022-12-13T03:28:01.506Z,-1.55
2022-12-13T03:33:05.827Z,-1.65
2022-12-13T03:38:10.250Z,-1.63
2022-12-13T03:43:13.616Z,-1.61
2022-12-13T03:48:26.122Z,-1.56
2022-12-13T03:53:33.067Z,-1.55
2022-12-13T03:58:38.421Z,-1.61
2022-12-13T04:03:44.332Z,-1.57
2022-12-13T04:08:48.113Z,-1.57
2022-12-13T04:13:55.625Z,-1.62
2022-12-13T04:18:59.643Z,-1.65
2022-12-13T04:24:03.318Z,-1.63
2022-12-13T04:29:06.566Z,-1.67
2022-12-13T04:34:10.012Z,-1.66
2022-12-13T04:39:21.903Z,-1.68
2022-12-13T04:44:28.760Z,-1.61
2022-12-13T04:49:34.845Z,-1.63
2022-12-13T04:54:38.293Z,-1.63
2022-12-13T04:59:42.112Z,-1.60
2022-12-13T05:04:46.303Z,-1.58
2022-12-13T05:09:56.938Z,-1.54
2022-12-13T05:15:00.179Z,-1.55
2022-12-13T05:20:04.328Z,-1.61
2022-12-13T05:25:10.075Z,-1.69
2022-12-13T05:30:13.711Z,-1.70
2022-12-13T05:35:22.120Z,-1.65
2022-12-13T05:40:30.543Z,-1.64
2022-12-13T05:45:37.470Z,-1.60
2022-12-13T05:50:43.786Z,-1.53
2022-12-13T05:55:47.093Z,-1.51
2022-12-13T06:00:50.460Z,-1.53
2022-12-13T06:05:53.765Z,-1.50
2022-12-13T06:11:10.661Z,-1.53
2022-12-13T06:16:22.062Z,-1.52
2022-12-13T06:21:27.077Z,-1.52
2022-12-13T06:26:30.861Z,-1.51
2022-12-13T06:31:34.216Z,-1.52
2022-12-13T06:36:37.663Z,-1.58
2022-12-13T06:41:41.149Z,-1.52
2022-12-13T06:46:44.498Z,-1.51
2022-12-13T06:51:48.012Z,-1.47
2022-12-13T06:56:51.364Z,-1.41
2022-12-13T07:01:56.300Z,-1.36
2022-12-13T07:07:07.598Z,-1.33
2022-12-13T07:12:10.927Z,-1.31
2022-12-13T07:17:32.990Z,-1.26
2022-12-13T07:22:46.614Z,-1.25
2022-12-13T07:28:02.949Z,-1.18
2022-12-13T07:33:09.814Z,-1.15
2022-12-13T07:38:13.669Z,-1.07
2022-12-13T07:43:18.594Z,-0.95
2022-12-13T07:48:25.869Z,-0.92
2022-12-13T07:53:29.763Z,-0.85
2022-12-13T07:58:37.656Z,-0.78
2022-12-13T08:03:41.146Z,-0.63
2022-12-13T08:08:44.609Z,-0.54
2022-12-13T08:13:48.059Z,-0.39
2022-12-13T08:18:51.517Z,-0.26
2022-12-13T08:23:55.042Z,-0.14
2022-12-13T08:28:58.530Z,-0.00
2022-12-13T08:34:02.297Z,0.07
2022-12-13T08:39:05.879Z,0.14
2022-12-13T08:44:09.275Z,0.25
2022-12-13T08:49:12.750Z,0.40
2022-12-13T08:54:31.392Z,0.46
2022-12-13T08:59:35.313Z,0.42
2022-12-13T09:04:39.324Z,0.33
2022-12-13T09:09:43.332Z,0.37
2022-12-13T09:14:47.588Z,0.48
2022-12-13T09:19:50.983Z,0.65
2022-12-13T09:25:03.748Z,0.83
2022-12-13T09:30:09.212Z,0.90
2022-12-13T09:35:13.114Z,0.92
2022-12-13T09:40:25.813Z,0.91
2022-12-13T09:45:31.871Z,0.88
2022-12-13T09:50:38.664Z,0.87
2022-12-13T09:55:47.447Z,0.96
2022-12-13T10:00:54.325Z,1.04
2022-12-13T10:05:59.497Z,1.09
2022-12-13T10:11:03.321Z,1.16
2022-12-13T10:16:51.197Z,1.27
2022-12-13T10:21:54.820Z,1.44
2022-12-13T10:27:18.326Z,1.55
2022-12-13T10:32:37.542Z,1.68
2022-12-13T10:37:41.894Z,1.85
2022-12-13T10:42:45.774Z,1.96
2022-12-13T10:47:49.456Z,2.00
2022-12-13T10:52:54.947Z,2.00
2022-12-13T10:58:09.997Z,2.02
2022-12-13T11:03:31.299Z,2.10
2022-12-13T11:08:34.825Z,2.21
2022-12-13T11:14:04.098Z,2.26
2022-12-13T11:19:50.693Z,2.29
2022-12-13T11:25:10.037Z,2.28
2022-12-13T11:30:21.958Z,2.17
2022-12-13T11:35:29.607Z,2.06
2022-12-13T11:40:42.240Z,1.96
2022-12-13T11:45:52.724Z,1.81
2022-12-13T11:51:01.255Z,1.80
2022-12-13T11:56:10.913Z,1.81
2022-12-13T12:01:19.674Z,1.80
2022-12-13T12:07:32.267Z,1.76
2022-12-13T12:12:38.604Z,1.57
2022-12-13T12:17:42.737Z,1.45
2022-12-13T12:23:14.890Z,1.36
2022-12-13T12:28:44.133Z,1.27
2022-12-13T12:34:28.076Z,1.28
2022-12-13T12:39:52.227Z,1.26
2022-12-13T12:45:17.513Z,1.25
2022-12-13T12:50:43.165Z,1.14
2022-12-13T12:56:21.696Z,1.06
2022-12-13T13:01:55.563Z,0.96
2022-12-13T13:07:23.582Z,0.77
2022-12-13T13:12:42.906Z,0.61
2022-12-13T13:17:49.348Z,0.43
2022-12-13T13:23:17.528Z,0.36
2022-12-13T13:28:19.664Z,0.31
2022-12-13T13:33:49.306Z,0.26
2022-12-13T13:38:54.091Z,0.21
2022-12-13T13:44:01.725Z,0.17
2022-12-13T13:49:12.419Z,0.06
2022-12-13T13:54:42.304Z,0.01
2022-12-13T14:00:15.276Z,-0.04
2022-12-13T14:05:40.917Z,-0.11
2022-12-13T14:10:57.522Z,-0.13
2022-12-13T14:16:20.463Z,-0.19
2022-12-13T14:21:48.869Z,-0.27
2022-12-13T14:27:18.033Z,-0.30
2022-12-13T14:32:31.394Z,-0.36
2022-12-13T14:37:38.145Z,-0.46
2022-12-13T14:42:42.243Z,-0.52
2022-12-13T14:47:54.594Z,-0.52
2022-12-13T14:52:58.310Z,-0.55
2022-12-13T14:58:04.461Z,-0.55
2022-12-13T15:03:08.595Z,-0.60
2022-12-13T15:08:19.254Z,-0.59
2022-12-13T15:13:29.346Z,-0.61
2022-12-13T15:18:33.796Z,-0.64
2022-12-13T15:23:48.896Z,-0.64
2022-12-13T15:28:59.769Z,-0.63
2022-12-13T15:34:32.260Z,-0.66
2022-12-13T15:39:38.929Z,-0.70
2022-12-13T15:44:50.634Z,-0.72
2022-12-13T15:49:57.536Z,-0.70
2022-12-13T15:55:28.167Z,-0.71
2022-12-13T16:00:35.719Z,-0.72
2022-12-13T16:05:47.667Z,-0.69
2022-12-13T16:10:53.639Z,-0.81
2022-12-13T16:16:09.462Z,-0.96
2022-12-13T16:21:14.987Z,-0.98
2022-12-13T16:26:25.880Z,-0.99
2022-12-13T16:31:36.086Z,-1.03
2022-12-13T16:36:40.797Z,-1.06
2022-12-13T16:41:48.880Z,-1.08
2022-12-13T16:47:14.343Z,-1.09
2022-12-13T16:52:17.313Z,-1.10
2022-12-13T16:57:20.894Z,-1.14
2022-12-13T17:02:24.861Z,-1.19
2022-12-13T17:07:29.444Z,-1.27
2022-12-13T17:12:33.118Z,-1.31
2022-12-13T17:17:56.065Z,-1.43
2022-12-13T17:22:59.701Z,-1.63
2022-12-13T17:28:05.021Z,-1.87
2022-12-13T17:33:10.633Z,-2.07
2022-12-13T17:38:17.013Z,-2.27
2022-12-13T17:43:32.713Z,-2.44
2022-12-13T17:48:41.168Z,-2.60
2022-12-13T17:53:46.103Z,-2.75
2022-12-13T17:58:50.061Z,-2.86
2022-12-13T18:03:56.464Z,-2.95
2022-12-13T18:09:00.211Z,-3.03
2022-12-13T18:14:05.753Z,-3.12
2022-12-13T18:19:14.665Z,-3.20
2022-12-13T18:24:18.136Z,-3.28
2022-12-13T18:29:22.333Z,-3.33
2022-12-13T18:34:26.598Z,-3.33
2022-12-13T18:39:30.647Z,-3.33
2022-12-13T18:44:40.973Z,-3.32
2022-12-13T18:49:59.097Z,-3.33
2022-12-13T18:55:04.000Z,-3.33
2022-12-13T19:00:08.442Z,-3.35
2022-12-13T19:05:12.390Z,-3.38
2022-12-13T19:10:15.970Z,-3.43
2022-12-13T19:15:19.651Z,-3.47
2022-12-13T19:20:23.726Z,-3.52
2022-12-13T19:25:27.167Z,-3.58
2022-12-13T19:30:32.999Z,-3.62
2022-12-13T19:35:37.059Z,-3.65
2022-12-13T19:40:45.524Z,-3.68
2022-12-13T19:45:49.043Z,-3.70
2022-12-13T19:50:58.679Z,-3.73
2022-12-13T19:56:02.226Z,-3.76
2022-12-13T20:01:07.338Z,-3.78
2022-12-13T20:06:22.999Z,-3.80
2022-12-13T20:11:30.467Z,-3.80
2022-12-13T20:16:34.835Z,-3.78
2022-12-13T20:21:43.695Z,-3.69
2022-12-13T20:26:47.495Z,-3.50
2022-12-13T20:31:54.395Z,-3.38
2022-12-13T20:36:58.220Z,-3.30
2022-12-13T20:42:01.968Z,-3.19
2022-12-13T20:47:06.285Z,-3.15
2022-12-13T20:52:14.573Z,-3.16
2022-12-13T20:57:18.254Z,-3.23
2022-12-13T21:02:21.891Z,-3.32
2022-12-13T21:07:45.361Z,-3.36
2022-12-13T21:12:52.187Z,-3.31
2022-12-13T21:17:56.179Z,-3.28
2022-12-13T21:22:59.745Z,-3.33
2022-12-13T21:28:03.190Z,-3.48
2022-12-13T21:33:06.513Z,-3.54
2022-12-13T21:38:10.332Z,-3.65
2022-12-13T21:43:14.183Z,-3.78
2022-12-13T21:48:18.863Z,-3.89
2022-12-13T21:53:22.343Z,-4.01
2022-12-13T21:58:45.664Z,-4.13
2022-12-13T22:03:49.135Z,-4.21
2022-12-13T22:08:53.559Z,-4.29
2022-12-13T22:14:00.016Z,-4.36
2022-12-13T22:19:04.487Z,-4.45
2022-12-13T22:24:10.175Z,-4.59
2022-12-13T22:29:14.639Z,-4.68
2022-12-13T22:34:18.544Z,-4.71
2022-12-13T22:39:24.212Z,-4.74
2022-12-13T22:44:27.728Z,-4.73
2022-12-13T22:49:31.190Z,-4.71
2022-12-13T22:54:34.598Z,-4.74
2022-12-13T22:59:38.108Z,-4.71
2022-12-13T23:04:41.423Z,-4.72
2022-12-13T23:09:45.335Z,-4.74
2022-12-13T23:14:48.654Z,-4.79
2022-12-13T23:19:54.308Z,-4.84
2022-12-13T23:24:58.624Z,-4.84
2022-12-13T23:30:02.135Z,-4.87
2022-12-13T23:35:06.265Z,-4.89
2022-12-13T23:40:10.450Z,-4.93
2022-12-13T23:45:13.968Z,-4.98
2022-12-13T23:50:17.892Z,-5.03
2022-12-13T23:55:21.372Z,-5.06
